createdAt,value
2018-09-09T00:01:30.263Z,10.17
2018-09-09T00:03:57.865Z,9.00
2018-09-09T00:06:25.445Z,8.90
2018-09-09T00:08:53.108Z,9.80
2018-09-09T00:11:20.803Z,9.53
2018-09-09T00:13:48.388Z,9.20
2018-09-09T00:16:15.992Z,10.53
2018-09-09T00:18:43.577Z,9.50
2018-09-09T00:21:11.162Z,9.40
2018-09-09T00:23:38.745Z,9.30
2018-09-09T00:26:06.371Z,9.00
2018-09-09T00:28:33.944Z,9.37
2018-09-09T00:31:01.573Z,8.93
2018-09-09T00:33:29.142Z,9.80
2018-09-09T00:35:56.705Z,9.93
2018-09-09T00:38:24.266Z,8.43
2018-09-09T00:40:51.827Z,9.80
2018-09-09T00:43:19.394Z,8.60
2018-09-09T00:45:46.978Z,8.80
2018-09-09T00:48:14.582Z,10.10
2018-09-09T00:50:47.425Z,9.90
2018-09-09T00:53:20.487Z,9.10
2018-09-09T00:55:48.090Z,8.83
2018-09-09T00:58:15.704Z,9.33
2018-09-09T01:00:48.681Z,9.80
2018-09-09T01:03:16.300Z,9.60
2018-09-09T01:05:43.896Z,9.60
2018-09-09T01:08:11.465Z,9.17
2018-09-09T01:10:39.039Z,8.97
2018-09-09T01:13:06.619Z,9.50
2018-09-09T01:15:34.285Z,7.87
2018-09-09T01:18:01.848Z,7.80
2018-09-09T01:20:29.432Z,7.77
2018-09-09T01:22:56.989Z,8.30
2018-09-09T01:25:24.589Z,8.30
2018-09-09T01:27:52.143Z,8.23
2018-09-09T01:30:19.765Z,7.40
2018-09-09T01:32:47.326Z,8.10
2018-09-09T01:35:14.925Z,8.40
2018-09-09T01:37:42.537Z,8.63
2018-09-09T01:40:10.136Z,9.70
2018-09-09T01:42:37.825Z,9.00
2018-09-09T01:45:05.412Z,8.30
2018-09-09T01:47:32.998Z,8.30
2018-09-09T01:50:00.557Z,8.40
2018-09-09T01:52:28.135Z,9.27
2018-09-09T01:54:55.721Z,9.13
2018-09-09T01:57:23.381Z,8.90
2018-09-09T01:59:50.952Z,9.13
2018-09-09T02:02:18.540Z,8.97
2018-09-09T02:04:46.150Z,10.30
2018-09-09T02:07:13.876Z,8.70
2018-09-09T02:09:41.432Z,9.47
2018-09-09T02:12:09.005Z,8.90
2018-09-09T02:14:36.582Z,9.70
2018-09-09T02:17:04.192Z,9.07
2018-09-09T02:19:31.764Z,9.53
2018-09-09T02:21:59.384Z,10.07
2018-09-09T02:24:26.966Z,9.97
2018-09-09T02:26:54.528Z,8.97
2018-09-09T02:29:22.128Z,9.00
2018-09-09T02:31:49.734Z,9.37
2018-09-09T02:34:17.341Z,9.30
2018-09-09T02:36:44.947Z,10.10
2018-09-09T02:39:12.543Z,9.70
2018-09-09T02:41:40.533Z,9.90
2018-09-09T02:44:08.319Z,8.93
2018-09-09T02:46:35.976Z,10.27
2018-09-09T02:49:03.577Z,9.47
2018-09-09T02:51:31.155Z,10.33
2018-09-09T02:53:58.732Z,9.57
2018-09-09T02:56:26.305Z,10.37
2018-09-09T02:58:53.908Z,10.77
2018-09-09T03:01:21.481Z,10.07
2018-09-09T03:03:49.113Z,9.43
2018-09-09T03:06:16.677Z,10.50
2018-09-09T03:08:44.223Z,11.00
2018-09-09T03:11:14.335Z,10.03
2018-09-09T03:13:42.996Z,9.83
2018-09-09T03:16:10.914Z,10.37
2018-09-09T03:18:38.789Z,10.37
2018-09-09T03:21:06.499Z,9.63
2018-09-09T03:23:34.130Z,9.90
2018-09-09T03:26:02.329Z,10.00
2018-09-09T03:28:30.193Z,10.80
2018-09-09T03:30:57.789Z,9.87
2018-09-09T03:33:25.371Z,10.37
2018-09-09T03:35:53.081Z,11.40
2018-09-09T03:38:20.841Z,9.63
2018-09-09T03:40:48.763Z,9.20
2018-09-09T03:43:16.345Z,9.70
2018-09-09T03:45:43.901Z,10.13
2018-09-09T03:48:11.698Z,10.90
2018-09-09T03:50:39.284Z,10.73
2018-09-09T03:53:06.881Z,10.17
2018-09-09T03:55:34.472Z,10.20
2018-09-09T03:58:02.312Z,10.87
2018-09-09T04:00:29.908Z,10.27
2018-09-09T04:02:57.474Z,10.67
2018-09-09T04:05:25.069Z,9.33
2018-09-09T04:07:52.943Z,10.57
2018-09-09T04:10:20.591Z,10.03
2018-09-09T04:12:48.178Z,9.30
2018-09-09T04:15:15.751Z,9.93
2018-09-09T04:17:43.320Z,10.10
2018-09-09T04:20:10.906Z,9.47
2018-09-09T04:22:38.491Z,9.70
2018-09-09T04:25:06.136Z,10.07
2018-09-09T04:27:33.763Z,9.67
2018-09-09T04:30:01.350Z,10.10
2018-09-09T04:32:28.916Z,9.90
2018-09-09T04:34:56.538Z,10.40
2018-09-09T04:37:24.110Z,10.00
2018-09-09T04:39:51.690Z,10.50
2018-09-09T04:42:19.234Z,9.90
2018-09-09T04:44:46.806Z,9.53
2018-09-09T04:47:14.388Z,10.10
2018-09-09T04:49:41.944Z,10.97
2018-09-09T04:52:09.520Z,9.87
2018-09-09T04:54:37.115Z,10.07
2018-09-09T04:57:04.720Z,9.57
2018-09-09T04:59:32.324Z,8.73
2018-09-09T05:01:59.876Z,9.80
2018-09-09T05:04:27.490Z,10.10
2018-09-09T05:06:55.084Z,10.30
2018-09-09T05:09:22.648Z,10.50
2018-09-09T05:11:50.243Z,9.73
2018-09-09T05:14:17.856Z,12.27
2018-09-09T05:16:45.451Z,10.27
2018-09-09T05:19:13.060Z,11.30
2018-09-09T05:21:40.634Z,12.33
2018-09-09T05:24:08.215Z,10.93
2018-09-09T05:26:35.789Z,11.40
2018-09-09T05:29:03.387Z,11.37
2018-09-09T05:31:30.992Z,10.80
2018-09-09T05:33:58.576Z,11.50
2018-09-09T05:36:26.503Z,11.67
2018-09-09T05:38:54.115Z,12.27
2018-09-09T05:41:21.768Z,10.60
2018-09-09T05:43:49.383Z,11.50
2018-09-09T05:46:16.945Z,11.67
2018-09-09T05:48:44.494Z,10.97
2018-09-09T05:51:12.067Z,11.03
2018-09-09T05:53:39.636Z,10.50
2018-09-09T05:56:07.362Z,10.73
2018-09-09T05:58:34.945Z,10.90
2018-09-09T06:01:02.563Z,10.73
2018-09-09T06:03:30.181Z,10.87
2018-09-09T06:05:57.781Z,11.17
2018-09-09T06:08:25.386Z,10.03
2018-09-09T06:10:54.828Z,11.73
2018-09-09T06:13:23.697Z,12.77
2018-09-09T06:15:51.363Z,11.90
2018-09-09T06:18:19.008Z,12.80
2018-09-09T06:20:46.601Z,11.67
2018-09-09T06:23:14.745Z,13.33
2018-09-09T06:25:42.296Z,12.83
2018-09-09T06:28:09.926Z,12.73
2018-09-09T06:30:37.574Z,12.17
2018-09-09T06:33:05.205Z,12.53
2018-09-09T06:35:32.829Z,12.07
2018-09-09T06:38:00.422Z,12.40
2018-09-09T06:40:28.052Z,13.20
2018-09-09T06:42:55.630Z,13.13
2018-09-09T06:45:23.224Z,14.30
2018-09-09T06:47:51.208Z,13.20
2018-09-09T06:50:18.848Z,13.23
2018-09-09T06:52:46.420Z,13.83
2018-09-09T06:55:14.040Z,12.33
2018-09-09T06:57:42.205Z,11.80
2018-09-09T07:00:09.986Z,13.10
2018-09-09T07:02:37.777Z,12.63
2018-09-09T07:05:05.472Z,12.80
2018-09-09T07:07:33.061Z,12.17
2018-09-09T07:10:00.653Z,12.73
2018-09-09T07:12:28.289Z,12.30
2018-09-09T07:14:55.902Z,12.13
2018-09-09T07:17:23.495Z,11.60
2018-09-09T07:19:51.138Z,12.03
2018-09-09T07:22:18.719Z,11.40
2018-09-09T07:24:46.341Z,10.83
2018-09-09T07:27:14.013Z,11.43
2018-09-09T07:29:41.940Z,11.93
2018-09-09T07:32:09.573Z,10.73
2018-09-09T07:34:37.135Z,11.70
2018-09-09T07:37:04.720Z,10.57
2018-09-09T07:39:32.391Z,9.67
2018-09-09T07:41:59.969Z,11.20
2018-09-09T07:44:27.526Z,10.80
2018-09-09T07:46:55.100Z,10.03
2018-09-09T07:49:22.687Z,9.63
2018-09-09T07:51:50.292Z,9.90
2018-09-09T07:54:17.846Z,9.30
2018-09-09T07:56:45.398Z,8.87
2018-09-09T07:59:13.001Z,9.47
2018-09-09T08:01:40.605Z,10.10
2018-09-09T08:04:08.185Z,9.17
2018-09-09T08:06:35.773Z,8.17
2018-09-09T08:09:03.586Z,9.83
2018-09-09T08:11:37.610Z,9.30
2018-09-09T08:14:05.806Z,9.20
2018-09-09T08:16:33.682Z,9.40
2018-09-09T08:19:01.278Z,8.53
2018-09-09T08:21:28.886Z,8.20
2018-09-09T08:23:56.494Z,9.00
2018-09-09T08:26:24.045Z,8.27
2018-09-09T08:28:51.652Z,9.00
2018-09-09T08:31:19.220Z,9.00
2018-09-09T08:33:46.829Z,8.90
2018-09-09T08:36:14.413Z,9.23
2018-09-09T08:38:41.972Z,9.80
2018-09-09T08:41:09.840Z,8.57
2018-09-09T08:43:37.408Z,9.47
2018-09-09T08:46:05.363Z,8.90
2018-09-09T08:48:33.064Z,9.00
2018-09-09T08:51:00.673Z,10.13
2018-09-09T08:53:28.239Z,9.20
2018-09-09T08:55:55.829Z,8.53
2018-09-09T08:58:23.603Z,9.27
2018-09-09T09:00:51.440Z,9.60
2018-09-09T09:03:19.333Z,9.37
2018-09-09T09:05:46.900Z,11.03
2018-09-09T09:08:14.566Z,9.93
2018-09-09T09:10:42.129Z,9.87
2018-09-09T09:13:09.720Z,8.70
2018-09-09T09:15:37.301Z,9.70
2018-09-09T09:18:04.904Z,11.43
2018-09-09T09:20:32.531Z,10.37
2018-09-09T09:23:00.082Z,9.67
2018-09-09T09:25:27.753Z,9.33
2018-09-09T09:27:55.337Z,10.40
2018-09-09T09:30:22.989Z,10.07
2018-09-09T09:32:50.635Z,10.23
2018-09-09T09:35:18.224Z,10.20
2018-09-09T09:37:45.803Z,9.53
2018-09-09T09:40:13.392Z,9.30
2018-09-09T09:42:41.004Z,9.40
2018-09-09T09:45:08.609Z,9.23
2018-09-09T09:47:36.170Z,9.37
2018-09-09T09:50:03.832Z,9.73
2018-09-09T09:52:31.384Z,9.90
2018-09-09T09:54:58.990Z,10.33
2018-09-09T09:57:26.605Z,10.13
2018-09-09T09:59:54.203Z,12.30
2018-09-09T10:02:21.813Z,10.20
2018-09-09T10:04:49.390Z,10.00
2018-09-09T10:07:17.014Z,9.87
2018-09-09T10:09:44.577Z,8.97
2018-09-09T10:12:12.229Z,9.93
2018-09-09T10:14:39.793Z,10.17
2018-09-09T10:17:07.380Z,10.43
2018-09-09T10:19:34.993Z,9.67
2018-09-09T10:22:02.600Z,9.37
2018-09-09T10:24:30.185Z,9.57
2018-09-09T10:26:57.833Z,9.60
2018-09-09T10:29:25.409Z,9.93
2018-09-09T10:31:53.019Z,9.47
2018-09-09T10:34:20.630Z,9.60
2018-09-09T10:36:48.191Z,9.50
2018-09-09T10:39:15.800Z,9.40
2018-09-09T10:41:43.388Z,9.20
2018-09-09T10:44:10.987Z,8.43
2018-09-09T10:46:38.592Z,8.57
2018-09-09T10:49:06.184Z,8.90
2018-09-09T10:51:33.760Z,9.23
2018-09-09T10:54:01.323Z,8.57
2018-09-09T10:56:28.900Z,8.60
2018-09-09T10:58:56.614Z,8.90
2018-09-09T11:01:24.081Z,8.70
2018-09-09T11:03:51.664Z,9.10
2018-09-09T11:06:19.295Z,8.27
2018-09-09T11:08:46.863Z,8.07
2018-09-09T11:11:14.429Z,8.53
2018-09-09T11:13:42.019Z,9.10
2018-09-09T11:16:09.651Z,8.47
2018-09-09T11:18:37.233Z,8.37
2018-09-09T11:21:04.849Z,8.80
2018-09-09T11:23:32.430Z,8.73
2018-09-09T11:26:00.009Z,8.00
2018-09-09T11:28:27.671Z,9.07
2018-09-09T11:30:55.258Z,8.90
2018-09-09T11:33:22.839Z,8.60
2018-09-09T11:35:50.460Z,8.57
2018-09-09T11:38:18.010Z,8.17
2018-09-09T11:40:45.622Z,8.13
2018-09-09T11:43:13.174Z,8.00
2018-09-09T11:45:40.736Z,7.43
2018-09-09T11:48:08.424Z,7.87
2018-09-09T11:50:36.031Z,8.33
2018-09-09T11:53:03.692Z,8.03
2018-09-09T11:55:31.271Z,8.00
2018-09-09T11:57:59.459Z,7.30
2018-09-09T12:00:27.056Z,7.17
2018-09-09T12:02:54.635Z,8.00
2018-09-09T12:05:22.193Z,7.77
2018-09-09T12:07:49.774Z,7.87
2018-09-09T12:10:17.365Z,7.00
2018-09-09T12:12:44.949Z,8.33
2018-09-09T12:15:12.597Z,8.23
2018-09-09T12:17:40.204Z,7.67
2018-09-09T12:20:07.804Z,7.07
2018-09-09T12:22:35.368Z,7.73
2018-09-09T12:25:02.983Z,8.40
2018-09-09T12:27:30.591Z,8.43
2018-09-09T12:29:58.141Z,7.73
2018-09-09T12:32:25.787Z,7.77
2018-09-09T12:34:53.369Z,7.90
2018-09-09T12:37:20.963Z,8.70
2018-09-09T12:39:48.573Z,8.20
2018-09-09T12:42:16.159Z,7.37
2018-09-09T12:44:49.000Z,7.20
2018-09-09T12:47:21.966Z,7.93
2018-09-09T12:49:49.545Z,7.60
2018-09-09T12:52:17.122Z,7.33
2018-09-09T12:54:44.712Z,7.27
2018-09-09T12:57:12.299Z,7.33
2018-09-09T12:59:39.981Z,7.10
2018-09-09T13:02:07.621Z,7.20
2018-09-09T13:04:35.212Z,6.10
2018-09-09T13:07:02.829Z,7.10
2018-09-09T13:09:30.423Z,7.53
2018-09-09T13:11:58.000Z,7.33
2018-09-09T13:14:25.649Z,7.00
2018-09-09T13:16:53.261Z,7.83
2018-09-09T13:19:20.858Z,6.97
2018-09-09T13:21:48.424Z,7.13
2018-09-09T13:24:16.032Z,7.30
2018-09-09T13:26:43.639Z,7.30
2018-09-09T13:29:11.248Z,7.50
2018-09-09T13:31:39.105Z,6.47
2018-09-09T13:34:06.745Z,7.60
2018-09-09T13:36:34.359Z,6.23
2018-09-09T13:39:01.948Z,7.80
2018-09-09T13:41:29.571Z,6.53
2018-09-09T13:43:57.193Z,7.20
2018-09-09T13:46:24.771Z,6.50
2018-09-09T13:48:52.366Z,7.20
2018-09-09T13:51:20.051Z,6.50
2018-09-09T13:53:47.656Z,6.40
2018-09-09T13:56:15.276Z,6.33
2018-09-09T13:58:42.885Z,6.50
2018-09-09T14:01:10.492Z,6.83
2018-09-09T14:03:38.091Z,6.17
2018-09-09T14:06:05.705Z,6.50
2018-09-09T14:08:33.289Z,6.30
2018-09-09T14:11:00.890Z,6.60
2018-09-09T14:13:28.460Z,7.30
2018-09-09T14:15:56.061Z,6.53
2018-09-09T14:18:23.656Z,6.87
2018-09-09T14:20:51.224Z,7.10
2018-09-09T14:23:18.784Z,7.30
2018-09-09T14:25:46.373Z,6.40
2018-09-09T14:28:13.999Z,6.73
2018-09-09T14:30:41.586Z,7.30
2018-09-09T14:33:09.185Z,6.47
2018-09-09T14:35:36.786Z,6.30
2018-09-09T14:38:04.358Z,6.77
2018-09-09T14:40:31.977Z,6.30
2018-09-09T14:42:59.536Z,7.00
2018-09-09T14:45:27.159Z,6.50
2018-09-09T14:47:54.798Z,6.03
2018-09-09T14:50:22.418Z,6.60
2018-09-09T14:52:50.045Z,6.60
2018-09-09T14:55:17.758Z,6.67
2018-09-09T14:57:45.441Z,6.47
2018-09-09T15:00:13.811Z,6.53
2018-09-09T15:02:41.475Z,6.47
2018-09-09T15:05:09.109Z,7.40
2018-09-09T15:07:36.704Z,6.50
2018-09-09T15:10:04.379Z,7.10
2018-09-09T15:12:32.033Z,7.10
2018-09-09T15:14:59.700Z,6.40
2018-09-09T15:17:27.338Z,7.03
2018-09-09T15:19:54.931Z,6.53
2018-09-09T15:22:22.556Z,6.70
2018-09-09T15:24:50.188Z,6.70
2018-09-09T15:27:17.828Z,7.33
2018-09-09T15:29:45.469Z,7.37
2018-09-09T15:32:13.105Z,7.03
2018-09-09T15:34:40.709Z,6.50
2018-09-09T15:37:09.278Z,6.90
2018-09-09T15:39:36.898Z,6.87
2018-09-09T15:42:04.506Z,7.30
2018-09-09T15:44:32.156Z,7.30
2018-09-09T15:46:59.786Z,6.73
2018-09-09T15:49:27.395Z,7.00
2018-09-09T15:51:55.003Z,7.30
2018-09-09T15:54:22.651Z,7.63
2018-09-09T15:56:50.256Z,7.60
2018-09-09T15:59:17.849Z,7.07
2018-09-09T16:01:45.472Z,6.97
2018-09-09T16:04:13.068Z,7.73
2018-09-09T16:06:40.713Z,7.20
2018-09-09T16:09:08.844Z,7.90
2018-09-09T16:11:36.480Z,7.47
2018-09-09T16:14:04.230Z,7.10
2018-09-09T16:16:31.847Z,7.30
2018-09-09T16:18:59.456Z,7.00
2018-09-09T16:21:27.061Z,7.27
2018-09-09T16:23:54.677Z,7.67
2018-09-09T16:26:22.278Z,7.60
2018-09-09T16:28:49.928Z,8.07
2018-09-09T16:31:17.614Z,8.43
2018-09-09T16:33:45.240Z,8.13
2018-09-09T16:36:12.948Z,7.30
2018-09-09T16:38:40.591Z,7.90
2018-09-09T16:41:08.228Z,7.03
2018-09-09T16:43:35.884Z,8.27
2018-09-09T16:46:03.485Z,8.30
2018-09-09T16:48:31.126Z,7.50
2018-09-09T16:50:58.802Z,7.67
2018-09-09T16:53:26.411Z,8.73
2018-09-09T16:55:54.018Z,7.90
2018-09-09T16:58:21.663Z,7.00
2018-09-09T17:00:49.659Z,8.23
2018-09-09T17:03:17.308Z,8.47
2018-09-09T17:05:44.898Z,7.27
2018-09-09T17:08:12.517Z,7.70
2018-09-09T17:10:40.186Z,8.47
2018-09-09T17:13:07.784Z,8.63
2018-09-09T17:15:35.470Z,8.63
2018-09-09T17:18:03.102Z,7.90
2018-09-09T17:20:30.750Z,7.53
2018-09-09T17:22:58.394Z,8.40
2018-09-09T17:25:26.050Z,8.50
2018-09-09T17:27:53.793Z,8.20
2018-09-09T17:30:21.476Z,7.53
2018-09-09T17:32:53.472Z,8.30
2018-09-09T17:35:21.191Z,8.07
2018-09-09T17:37:48.924Z,9.23
2018-09-09T17:40:16.614Z,7.93
2018-09-09T17:42:44.338Z,9.13
2018-09-09T17:45:12.161Z,8.03
2018-09-09T17:47:39.902Z,8.70
2018-09-09T17:50:08.406Z,9.17
2018-09-09T17:52:36.151Z,7.97
2018-09-09T17:55:04.781Z,8.47
2018-09-09T17:57:32.985Z,8.93
2018-09-09T18:00:00.724Z,8.47
2018-09-09T18:02:28.789Z,8.77
2018-09-09T18:04:57.537Z,9.07
2018-09-09T18:07:25.305Z,8.60
2018-09-09T18:09:53.009Z,8.73
2018-09-09T18:12:20.765Z,9.00
2018-09-09T18:14:48.574Z,7.93
2018-09-09T18:17:16.305Z,8.37
2018-09-09T18:19:44.916Z,9.07
2018-09-09T18:22:12.607Z,8.40
2018-09-09T18:24:40.429Z,9.63
2018-09-09T18:27:08.205Z,9.03
2018-09-09T18:29:35.943Z,9.17
2018-09-09T18:32:08.127Z,8.37
2018-09-09T18:34:36.013Z,9.03
2018-09-09T18:37:03.735Z,8.50
2018-09-09T18:39:31.607Z,9.03
2018-09-09T18:41:59.605Z,8.90
2018-09-09T18:44:27.397Z,8.53
2018-09-09T18:46:56.816Z,9.30
2018-09-09T18:49:24.573Z,8.90
2018-09-09T18:51:53.294Z,8.53
2018-09-09T18:54:20.992Z,9.43
2018-09-09T18:56:48.719Z,8.80
2018-09-09T18:59:16.696Z,9.50
2018-09-09T19:01:45.000Z,8.60
2018-09-09T19:04:13.493Z,9.50
2018-09-09T19:06:41.312Z,8.30
2018-09-09T19:09:09.088Z,8.70
2018-09-09T19:11:37.576Z,9.60
2018-09-09T19:14:06.383Z,9.00
2018-09-09T19:16:34.570Z,9.07
2018-09-09T19:19:02.296Z,10.23
2018-09-09T19:21:30.178Z,10.17
2018-09-09T19:23:57.952Z,8.87
2018-09-09T19:26:25.822Z,8.70
2018-09-09T19:28:54.597Z,8.37
2018-09-09T19:31:22.674Z,8.77
2018-09-09T19:33:50.436Z,8.53
2018-09-09T19:36:18.293Z,10.50
2018-09-09T19:38:53.630Z,9.43
2018-09-09T19:41:31.993Z,10.10
2018-09-09T19:43:59.835Z,9.03
2018-09-09T19:46:27.553Z,9.27
2018-09-09T19:48:55.509Z,9.27
2018-09-09T19:51:23.254Z,9.20
2018-09-09T19:53:51.148Z,9.20
2018-09-09T19:56:18.884Z,9.07
2018-09-09T19:58:47.466Z,9.00
2018-09-09T20:01:15.737Z,9.03
2018-09-09T20:03:43.591Z,9.57
2018-09-09T20:06:11.325Z,8.80
2018-09-09T20:08:39.566Z,9.43
2018-09-09T20:11:07.291Z,9.40
2018-09-09T20:13:35.009Z,9.50
2018-09-09T20:16:04.409Z,8.00
2018-09-09T20:18:32.218Z,9.30
2018-09-09T20:20:59.941Z,8.90
2018-09-09T20:23:27.606Z,8.13
2018-09-09T20:25:56.478Z,8.93
2018-09-09T20:28:24.141Z,9.60
2018-09-09T20:30:51.910Z,9.07
2018-09-09T20:33:19.771Z,9.10
2018-09-09T20:35:47.434Z,7.73
2018-09-09T20:38:15.180Z,7.70
2018-09-09T20:40:43.048Z,7.83
2018-09-09T20:43:11.187Z,8.57
2018-09-09T20:45:38.915Z,8.80
2018-09-09T20:48:06.811Z,8.70
2018-09-09T20:50:34.593Z,9.47
2018-09-09T20:53:03.018Z,9.30
2018-09-09T20:55:30.941Z,8.23
2018-09-09T20:57:58.730Z,9.40
2018-09-09T21:00:26.458Z,8.50
2018-09-09T21:02:54.187Z,9.47
2018-09-09T21:05:23.051Z,9.47
2018-09-09T21:07:51.512Z,8.90
2018-09-09T21:10:19.155Z,9.00
2018-09-09T21:12:47.069Z,9.60
2018-09-09T21:15:14.651Z,9.43
2018-09-09T21:17:42.276Z,9.60
2018-09-09T21:20:09.922Z,9.70
2018-09-09T21:22:37.546Z,9.80
2018-09-09T21:25:05.267Z,9.07
2018-09-09T21:27:32.872Z,9.77
2018-09-09T21:30:00.473Z,9.07
2018-09-09T21:32:28.098Z,9.57
2018-09-09T21:34:55.768Z,9.53
2018-09-09T21:37:23.391Z,9.40
2018-09-09T21:39:51.014Z,10.20
2018-09-09T21:42:18.652Z,8.90
2018-09-09T21:44:46.253Z,9.10
2018-09-09T21:47:13.864Z,9.27
2018-09-09T21:49:41.462Z,10.10
2018-09-09T21:52:09.106Z,9.77
2018-09-09T21:54:36.707Z,10.40
2018-09-09T21:57:05.075Z,9.90
2018-09-09T21:59:32.688Z,9.10
2018-09-09T22:02:03.236Z,8.87
2018-09-09T22:04:30.946Z,9.33
2018-09-09T22:06:58.648Z,9.90
2018-09-09T22:09:26.297Z,10.80
2018-09-09T22:11:53.881Z,9.50
2018-09-09T22:14:21.523Z,9.67
2018-09-09T22:16:49.150Z,10.33
2018-09-09T22:19:16.773Z,9.00
2018-09-09T22:21:47.652Z,10.53
2018-09-09T22:24:15.601Z,9.77
2018-09-09T22:26:43.208Z,9.80
2018-09-09T22:29:10.868Z,9.40
2018-09-09T22:31:38.484Z,10.30
2018-09-09T22:34:06.164Z,9.77
2018-09-09T22:36:33.790Z,9.50
2018-09-09T22:39:01.372Z,9.33
2018-09-09T22:41:28.977Z,10.07
2018-09-09T22:43:56.619Z,9.40
2018-09-09T22:46:24.236Z,10.40
2018-09-09T22:48:51.858Z,11.30
2018-09-09T22:51:19.452Z,10.63
2018-09-09T22:53:47.040Z,11.10
2018-09-09T22:56:14.674Z,10.27
2018-09-09T22:58:42.280Z,9.87
2018-09-09T23:01:09.874Z,9.33
2018-09-09T23:03:37.469Z,10.00
2018-09-09T23:06:05.085Z,10.50
2018-09-09T23:08:32.693Z,9.50
2018-09-09T23:11:00.388Z,10.20
2018-09-09T23:13:28.048Z,10.27
2018-09-09T23:15:55.660Z,10.00
2018-09-09T23:18:23.284Z,10.30
2018-09-09T23:20:50.897Z,9.73
2018-09-09T23:23:18.477Z,10.03
2018-09-09T23:25:46.102Z,10.60
2018-09-09T23:28:13.746Z,10.60
2018-09-09T23:30:41.450Z,10.80
2018-09-09T23:33:09.072Z,9.80
2018-09-09T23:35:36.675Z,11.70
2018-09-09T23:38:04.274Z,9.93
2018-09-09T23:40:31.872Z,11.30
2018-09-09T23:42:59.502Z,9.60
2018-09-09T23:45:27.202Z,11.20
2018-09-09T23:47:54.818Z,11.33
2018-09-09T23:50:22.423Z,10.50
2018-09-09T23:52:50.039Z,9.83
2018-09-09T23:55:17.631Z,10.30
2018-09-09T23:57:45.231Z,10.87
